Time;durP1;ratioP1;P1;durP2;ratioP2;P2;SDS_P1;SDS_P2;PMS_P1;PMS_P2;Temp;Humidity;BMP_temperature;BMP_pressure;BME280_temperature;BME280_humidity;BME280_pressure;Samples;Min_cycle;Max_cycle;Signal;HPM_P1;HPM_P2
2024/01/10 00:01:56;;;;;;;6.65;1.80;;;2.20;99.90;;;;;;4982473;28;20022;-86
2024/01/10 00:04:22;;;;;;;3.55;1.67;;;2.20;99.90;;;;;;4965911;28;20045;-85
2024/01/10 00:06:47;;;;;;;6.00;1.90;;;2.20;99.90;;;;;;4993364;28;20030;-85
2024/01/10 00:09:13;;;;;;;6.45;1.77;;;2.20;99.90;;;;;;4981174;28;20283;-85
2024/01/10 00:11:39;;;;;;;8.32;1.77;;;2.20;99.90;;;;;;4963941;28;20032;-87
2024/01/10 00:14:05;;;;;;;6.38;2.20;;;2.10;99.90;;;;;;4982800;28;20507;-85
2024/01/10 00:16:30;;;;;;;7.13;1.88;;;2.20;99.90;;;;;;4983081;28;20022;-85
2024/01/10 00:18:56;;;;;;;7.30;1.80;;;2.20;99.90;;;;;;4994037;28;20030;-85
2024/01/10 00:21:22;;;;;;;7.47;2.00;;;2.20;99.90;;;;;;4991434;28;20022;-85
2024/01/10 00:23:47;;;;;;;7.97;1.60;;;2.20;99.90;;;;;;4983031;28;20042;-85
2024/01/10 00:26:16;;;;;;;8.77;1.75;;;2.20;99.90;;;;;;4998511;28;20062;-85
2024/01/10 00:28:41;;;;;;;7.20;1.50;;;2.20;99.90;;;;;;4997828;28;20029;-85
2024/01/10 00:31:07;;;;;;;5.05;1.63;;;2.10;99.90;;;;;;4996577;28;20026;-85
2024/01/10 00:33:33;;;;;;;3.42;1.70;;;2.20;99.90;;;;;;4966929;28;20126;-86
2024/01/10 00:35:59;;;;;;;17.02;4.05;;;2.10;99.90;;;;;;4981340;28;20486;-86
2024/01/10 00:38:26;;;;;;;5.85;1.10;;;2.20;99.90;;;;;;4982316;28;20032;-85
2024/01/10 00:40:51;;;;;;;5.18;1.23;;;2.20;99.90;;;;;;4964749;28;20031;-85
2024/01/10 00:43:17;;;;;;;8.18;1.70;;;2.10;99.90;;;;;;4965404;28;20451;-85
2024/01/10 00:45:43;;;;;;;4.72;1.42;;;2.20;99.90;;;;;;4964367;28;20046;-86
2024/01/10 00:48:09;;;;;;;6.18;1.48;;;2.10;99.90;;;;;;4995762;28;20373;-85
2024/01/10 00:50:36;;;;;;;3.40;1.10;;;2.20;99.90;;;;;;4997779;28;20023;-85
2024/01/10 00:53:03;;;;;;;1.90;1.33;;;2.10;99.90;;;;;;4996941;28;20046;-85
2024/01/10 00:55:29;;;;;;;5.65;1.50;;;2.20;99.90;;;;;;4964380;28;20105;-85
2024/01/10 00:57:54;;;;;;;7.18;1.40;;;2.20;99.90;;;;;;4995604;28;20414;-86
2024/01/10 01:00:20;;;;;;;4.28;1.30;;;2.20;99.90;;;;;;4964511;28;20088;-85
2024/01/10 01:02:46;;;;;;;5.80;1.08;;;2.20;99.90;;;;;;4987091;28;20361;-86
2024/01/10 01:05:12;;;;;;;2.67;1.00;;;2.20;99.90;;;;;;5000540;28;20487;-85
2024/01/10 01:07:37;;;;;;;2.72;1.20;;;2.20;99.90;;;;;;4968282;28;20172;-85
2024/01/10 01:10:04;;;;;;;4.55;1.27;;;2.20;99.90;;;;;;4969105;28;20053;-86
2024/01/10 01:12:30;;;;;;;8.70;1.77;;;2.20;99.90;;;;;;4986676;28;20046;-86
2024/01/10 01:14:56;;;;;;;3.30;1.10;;;2.10;99.90;;;;;;4969839;28;20465;-85
2024/01/10 01:17:23;;;;;;;4.25;1.08;;;2.10;99.90;;;;;;5001501;28;20030;-86
2024/01/10 01:19:48;;;;;;;3.30;1.33;;;2.10;99.90;;;;;;4986936;28;20072;-86
2024/01/10 01:22:14;;;;;;;3.40;1.25;;;2.10;99.90;;;;;;5001668;28;20114;-86
2024/01/10 01:24:40;;;;;;;6.00;1.48;;;2.10;99.90;;;;;;4986580;28;20607;-85
2024/01/10 01:27:06;;;;;;;2.35;1.00;;;2.10;99.90;;;;;;5000593;28;20101;-86
2024/01/10 01:29:32;;;;;;;5.63;1.10;;;2.20;99.90;;;;;;4967492;28;20073;-85
2024/01/10 01:31:58;;;;;;;2.88;1.15;;;2.20;99.90;;;;;;4968757;28;20421;-89
2024/01/10 01:34:24;;;;;;;8.35;1.30;;;2.10;99.90;;;;;;4968294;28;20101;-85
2024/01/10 01:36:51;;;;;;;3.78;1.13;;;2.10;99.90;;;;;;4968447;28;20031;-85
2024/01/10 01:39:18;;;;;;;1.42;0.90;;;2.10;99.90;;;;;;4968464;28;20089;-86
2024/01/10 01:41:44;;;;;;;5.18;1.10;;;2.10;99.90;;;;;;5000240;28;20033;-86
2024/01/10 01:44:10;;;;;;;2.25;1.05;;;2.10;99.90;;;;;;4985103;28;20412;-86
2024/01/10 01:46:37;;;;;;;1.88;0.82;;;2.10;99.90;;;;;;4967160;28;20070;-87
2024/01/10 01:49:03;;;;;;;4.35;1.00;;;2.10;99.90;;;;;;4968936;28;20019;-87
2024/01/10 01:51:31;;;;;;;2.00;0.77;;;2.20;99.90;;;;;;4986484;28;20027;-86
2024/01/10 01:53:58;;;;;;;6.55;0.98;;;2.20;99.90;;;;;;4967728;28;20026;-85
2024/01/10 01:56:24;;;;;;;3.30;1.08;;;2.20;99.90;;;;;;4966075;28;20026;-85
2024/01/10 01:58:54;;;;;;;3.22;0.85;;;2.20;99.90;;;;;;4986103;28;20476;-86
2024/01/10 02:01:21;;;;;;;3.60;0.80;;;2.20;99.90;;;;;;4968172;28;20036;-86
2024/01/10 02:03:47;;;;;;;4.07;1.20;;;2.20;99.90;;;;;;4996602;28;20547;-87
2024/01/10 02:06:14;;;;;;;5.82;1.02;;;2.20;99.90;;;;;;4986337;28;20034;-86
2024/01/10 02:08:39;;;;;;;1.48;0.73;;;2.20;99.90;;;;;;4966665;28;20023;-88
2024/01/10 02:11:08;;;;;;;3.50;0.95;;;2.20;99.90;;;;;;4985703;28;20089;-86
2024/01/10 02:13:38;;;;;;;2.08;0.70;;;2.20;99.90;;;;;;4961796;28;20081;-86
2024/01/10 02:16:09;;;;;;;2.03;0.70;;;2.20;99.90;;;;;;4985252;28;20030;-86
2024/01/10 02:18:35;;;;;;;1.77;0.82;;;2.20;99.90;;;;;;4968026;28;20030;-86
2024/01/10 02:21:01;;;;;;;4.18;0.80;;;2.20;99.90;;;;;;4970093;28;20488;-87
2024/01/10 02:23:28;;;;;;;4.25;1.00;;;2.30;99.90;;;;;;5004467;28;20058;-85
2024/01/10 02:25:54;;;;;;;5.90;0.90;;;2.20;99.90;;;;;;4982287;28;20034;-86
2024/01/10 02:28:23;;;;;;;5.78;1.00;;;2.20;99.90;;;;;;4983994;28;20027;-85
2024/01/10 02:30:54;;;;;;;3.75;0.80;;;2.30;99.90;;;;;;4953096;28;20492;-87
2024/01/10 02:33:19;;;;;;;3.35;0.85;;;2.30;99.90;;;;;;4969071;28;20109;-86
2024/01/10 02:35:45;;;;;;;3.53;1.05;;;2.30;99.90;;;;;;4983496;28;20034;-85
2024/01/10 02:38:11;;;;;;;2.03;0.93;;;2.20;99.90;;;;;;4968918;28;20049;-85
2024/01/10 02:40:38;;;;;;;2.90;0.70;;;2.30;99.90;;;;;;4984764;28;20057;-85
2024/01/10 02:43:07;;;;;;;1.35;0.80;;;2.30;99.90;;;;;;4966634;28;20396;-86
2024/01/10 02:45:33;;;;;;;3.45;0.90;;;2.30;99.90;;;;;;4964688;28;20415;-86
2024/01/10 02:48:01;;;;;;;4.85;1.50;;;2.30;99.90;;;;;;5000543;28;20443;-87
2024/01/10 02:50:30;;;;;;;2.92;0.80;;;2.20;99.90;;;;;;4983988;28;20038;-87
2024/01/10 02:52:56;;;;;;;4.70;1.20;;;2.20;99.90;;;;;;4984086;28;20085;-87
2024/01/10 02:55:27;;;;;;;4.45;1.17;;;2.20;99.90;;;;;;4967728;28;20370;-87
2024/01/10 02:57:53;;;;;;;;;;;2.10;99.90;;;;;;4968187;28;20027;-87
2024/01/10 03:00:20;;;;;;;2.97;1.10;;;2.10;99.90;;;;;;4966798;28;19984;-87
2024/01/10 03:02:47;;;;;;;6.32;1.30;;;2.10;99.90;;;;;;4983524;28;20539;-87
2024/01/10 03:05:15;;;;;;;3.63;1.55;;;2.10;99.90;;;;;;4984746;28;20034;-87
2024/01/10 03:07:44;;;;;;;6.10;1.50;;;2.00;99.90;;;;;;4982621;28;20488;-87
2024/01/10 03:10:10;;;;;;;7.28;2.20;;;2.00;99.90;;;;;;4984026;28;20030;-87
2024/01/10 03:12:37;;;;;;;4.30;2.63;;;2.00;99.90;;;;;;4965948;28;20086;-87
2024/01/10 03:15:07;;;;;;;8.15;2.85;;;2.00;99.90;;;;;;4977429;28;20462;-87
2024/01/10 03:17:33;;;;;;;4.57;2.80;;;1.90;99.90;;;;;;4966285;28;20047;-87
2024/01/10 03:20:05;;;;;;;4.90;2.58;;;1.90;99.90;;;;;;4984643;28;20750;-87
2024/01/10 03:22:32;;;;;;;3.53;2.60;;;1.90;99.90;;;;;;4965313;28;20029;-87
2024/01/10 03:24:58;;;;;;;3.45;2.35;;;1.90;99.90;;;;;;4966547;28;20034;-88
2024/01/10 03:27:23;;;;;;;6.13;2.80;;;1.90;99.90;;;;;;4966067;28;20023;-88
2024/01/10 03:29:49;;;;;;;5.43;2.90;;;1.80;99.90;;;;;;4982480;28;20077;-87
2024/01/10 03:32:15;;;;;;;4.25;3.25;;;1.80;99.90;;;;;;4998520;28;20026;-87
2024/01/10 03:34:42;;;;;;;4.45;2.85;;;1.80;99.90;;;;;;4967955;28;20018;-85
2024/01/10 03:37:08;;;;;;;5.35;2.45;;;1.80;99.90;;;;;;4998881;28;20038;-87
2024/01/10 03:39:33;;;;;;;3.03;1.95;;;1.80;99.90;;;;;;4985545;28;20033;-87
2024/01/10 03:41:59;;;;;;;2.45;1.98;;;1.70;99.90;;;;;;4997706;28;20055;-87
2024/01/10 03:44:27;;;;;;;3.45;2.10;;;1.70;99.90;;;;;;5001080;28;20042;-87
2024/01/10 03:46:52;;;;;;;4.78;2.10;;;1.70;99.90;;;;;;4969106;28;20493;-86
2024/01/10 03:49:18;;;;;;;4.15;2.17;;;1.70;99.90;;;;;;4964789;28;20023;-88
2024/01/10 03:51:44;;;;;;;2.60;2.30;;;1.80;99.90;;;;;;4967872;28;20029;-87
2024/01/10 03:54:09;;;;;;;3.58;2.08;;;1.80;99.90;;;;;;4984591;28;20164;-87
2024/01/10 03:56:35;;;;;;;2.97;2.30;;;1.80;99.90;;;;;;4969524;28;20563;-86
2024/01/10 03:59:01;;;;;;;4.97;2.35;;;1.80;99.90;;;;;;4998702;28;20484;-87
2024/01/10 04:01:27;;;;;;;3.38;2.10;;;1.80;99.90;;;;;;4966537;28;20513;-86
2024/01/10 04:03:52;;;;;;;5.50;2.17;;;1.80;99.90;;;;;;4999614;28;20045;-87
2024/01/10 04:06:18;;;;;;;4.57;2.10;;;1.80;99.90;;;;;;4966912;28;20039;-88
2024/01/10 04:08:44;;;;;;;2.55;1.90;;;1.80;99.90;;;;;;4964994;28;20041;-86
2024/01/10 04:11:10;;;;;;;5.75;2.00;;;1.80;99.90;;;;;;4964618;28;20093;-89
2024/01/10 04:13:36;;;;;;;5.22;1.90;;;1.80;99.90;;;;;;4982842;28;20018;-86
2024/01/10 04:16:03;;;;;;;5.07;1.80;;;1.90;99.90;;;;;;4984832;28;20025;-86
2024/01/10 04:18:28;;;;;;;2.78;1.90;;;1.80;99.90;;;;;;4965446;28;20026;-86
2024/01/10 04:20:54;;;;;;;4.15;1.65;;;1.90;99.90;;;;;;4966475;28;20031;-86
2024/01/10 04:23:20;;;;;;;6.32;2.33;;;1.90;99.90;;;;;;4998143;28;20034;-86
2024/01/10 04:25:45;;;;;;;2.45;1.77;;;1.90;99.90;;;;;;4999855;28;20030;-87
2024/01/10 04:28:11;;;;;;;5.00;2.28;;;1.90;99.90;;;;;;4998782;28;20021;-87
2024/01/10 04:30:38;;;;;;;3.35;1.83;;;1.90;99.90;;;;;;4962931;28;20041;-87
2024/01/10 04:33:04;;;;;;;2.90;1.88;;;2.00;99.90;;;;;;4983943;28;20057;-87
2024/01/10 04:35:30;;;;;;;5.88;1.98;;;2.00;99.90;;;;;;4950314;28;20022;-87
2024/01/10 04:37:56;;;;;;;2.47;1.70;;;2.00;99.90;;;;;;4998318;28;20064;-87
2024/01/10 04:40:23;;;;;;;1.88;1.70;;;2.00;99.90;;;;;;4966428;28;20062;-86
2024/01/10 04:42:52;;;;;;;1.98;1.60;;;2.00;99.90;;;;;;4983517;28;20034;-86
2024/01/10 04:45:20;;;;;;;5.40;1.42;;;2.00;99.90;;;;;;4966154;28;20054;-86
2024/01/10 04:47:51;;;;;;;2.78;1.50;;;2.10;99.90;;;;;;4965373;28;20046;-86
2024/01/10 04:50:18;;;;;;;1.70;1.50;;;2.10;99.90;;;;;;4980550;28;20027;-86
2024/01/10 04:52:48;;;;;;;2.15;1.33;;;2.10;99.90;;;;;;4980585;28;20090;-86
2024/01/10 04:55:13;;;;;;;2.25;1.40;;;2.10;99.90;;;;;;4965329;28;20030;-86
2024/01/10 04:57:40;;;;;;;4.20;1.60;;;2.10;99.90;;;;;;4981536;28;20031;-86
2024/01/10 05:00:08;;;;;;;2.38;1.08;;;2.10;99.90;;;;;;4965733;28;20392;-87
2024/01/10 05:02:36;;;;;;;4.10;0.90;;;2.10;99.90;;;;;;4966154;28;20105;-86
2024/01/10 05:05:06;;;;;;;1.70;1.10;;;2.20;99.90;;;;;;4983084;28;20121;-88
2024/01/10 05:07:32;;;;;;;1.27;1.13;;;2.20;99.90;;;;;;4962916;28;20026;-86
2024/01/10 05:10:01;;;;;;;2.28;1.30;;;2.30;99.90;;;;;;4980402;28;20395;-87
2024/01/10 05:12:29;;;;;;;3.40;1.60;;;2.30;99.90;;;;;;4966344;28;20121;-87
2024/01/10 05:14:54;;;;;;;3.20;1.60;;;2.40;99.90;;;;;;4968463;28;20031;-87
2024/01/10 05:17:20;;;;;;;2.45;1.60;;;2.40;99.90;;;;;;5002029;28;20033;-87
2024/01/10 05:19:47;;;;;;;3.33;1.27;;;2.40;99.90;;;;;;4983000;28;20046;-87
2024/01/10 05:22:12;;;;;;;3.47;1.30;;;2.40;99.90;;;;;;4999977;28;20031;-87
2024/01/10 05:24:38;;;;;;;2.40;1.30;;;2.40;99.90;;;;;;4965606;28;20027;-87
2024/01/10 05:27:04;;;;;;;1.40;1.20;;;2.40;99.90;;;;;;4964093;28;20388;-87
2024/01/10 05:29:30;;;;;;;2.55;1.15;;;2.40;99.90;;;;;;4966107;28;20027;-88
2024/01/10 05:31:56;;;;;;;3.42;1.65;;;2.40;99.90;;;;;;4951048;28;20027;-86
2024/01/10 05:34:26;;;;;;;2.65;1.80;;;2.40;99.90;;;;;;4998956;28;20483;-86
2024/01/10 05:36:53;;;;;;;1.70;1.58;;;2.40;99.90;;;;;;4968212;28;20022;-87
2024/01/10 05:39:20;;;;;;;3.08;1.90;;;2.40;99.90;;;;;;4997549;28;20100;-87
2024/01/10 05:41:47;;;;;;;3.13;1.88;;;2.40;99.90;;;;;;4982751;28;20058;-87
2024/01/10 05:44:14;;;;;;;3.33;1.80;;;2.40;99.90;;;;;;4966271;28;20056;-86
2024/01/10 05:46:42;;;;;;;3.15;1.73;;;2.40;99.90;;;;;;4966952;28;20030;-86
2024/01/10 05:49:08;;;;;;;6.50;1.83;;;2.50;99.90;;;;;;4970586;28;20030;-86
2024/01/10 05:51:34;;;;;;;3.15;1.70;;;2.50;99.90;;;;;;4970038;28;20034;-85
2024/01/10 05:54:00;;;;;;;3.83;1.88;;;2.50;99.90;;;;;;5001307;28;20065;-86
2024/01/10 05:56:27;;;;;;;2.88;2.00;;;2.50;99.90;;;;;;4966894;28;20081;-87
2024/01/10 05:58:53;;;;;;;3.00;2.22;;;2.50;99.90;;;;;;4968229;28;20105;-86
2024/01/10 06:01:23;;;;;;;5.20;2.50;;;2.40;99.90;;;;;;4968541;28;20475;-87
2024/01/10 06:03:50;;;;;;;7.10;3.10;;;2.40;99.90;;;;;;4983749;28;20404;-86
2024/01/10 06:06:18;;;;;;;3.40;2.80;;;2.50;99.90;;;;;;4967441;28;20035;-87
2024/01/10 06:08:44;;;;;;;9.40;3.05;;;2.40;99.90;;;;;;5000596;28;20062;-86
2024/01/10 06:11:10;;;;;;;3.70;3.03;;;2.50;99.90;;;;;;4968720;28;20069;-87
2024/01/10 06:13:39;;;;;;;6.90;2.58;;;2.50;99.90;;;;;;4969042;28;20110;-87
2024/01/10 06:16:07;;;;;;;3.10;2.35;;;2.40;99.90;;;;;;4999934;28;20422;-87
2024/01/10 06:18:33;;;;;;;5.85;2.70;;;2.40;99.90;;;;;;4969351;28;20188;-87
2024/01/10 06:21:01;;;;;;;3.00;1.95;;;2.40;99.90;;;;;;4969243;28;20082;-88
2024/01/10 06:23:27;;;;;;;3.63;2.40;;;2.40;99.90;;;;;;4982592;28;20395;-87
2024/01/10 06:25:54;;;;;;;5.10;2.20;;;2.50;99.90;;;;;;4975266;28;20035;-87
2024/01/10 06:28:23;;;;;;;4.15;2.40;;;2.50;99.90;;;;;;5000181;28;20487;-87
2024/01/10 06:30:49;;;;;;;3.88;2.45;;;2.50;99.90;;;;;;4968163;28;20037;-88
2024/01/10 06:33:15;;;;;;;3.75;2.42;;;2.50;99.90;;;;;;4985395;28;20034;-88
2024/01/10 06:35:44;;;;;;;3.55;2.78;;;2.50;99.90;;;;;;4985309;28;20026;-87
2024/01/10 06:38:11;;;;;;;5.55;2.58;;;2.50;99.90;;;;;;4969073;28;20065;-87
2024/01/10 06:40:36;;;;;;;4.60;2.78;;;2.40;99.90;;;;;;5000813;28;20019;-88
2024/01/10 06:43:04;;;;;;;7.53;4.22;;;2.50;99.90;;;;;;4969678;28;20031;-88
2024/01/10 06:45:29;;;;;;;4.75;3.20;;;2.50;99.90;;;;;;4999421;28;20050;-88
2024/01/10 06:47:55;;;;;;;7.03;3.92;;;2.50;99.90;;;;;;4999077;28;20035;-87
2024/01/10 06:50:23;;;;;;;5.10;3.55;;;2.50;99.90;;;;;;4966992;28;20031;-87
2024/01/10 06:52:49;;;;;;;7.75;3.80;;;2.50;99.90;;;;;;4967925;28;20123;-87
2024/01/10 06:55:15;;;;;;;5.15;3.58;;;2.50;99.90;;;;;;4999598;28;20120;-87
2024/01/10 06:57:42;;;;;;;5.15;3.65;;;2.50;99.90;;;;;;5001181;28;20030;-87
2024/01/10 07:00:13;;;;;;;4.47;3.40;;;2.50;99.90;;;;;;4970165;28;20030;-87
2024/01/10 07:02:39;;;;;;;6.97;3.83;;;2.50;99.90;;;;;;4964570;28;20133;-87
2024/01/10 07:05:09;;;;;;;7.55;4.72;;;2.50;99.90;;;;;;4993603;28;20094;-87
2024/01/10 07:07:35;;;;;;;6.47;4.43;;;2.50;99.90;;;;;;4970398;28;20030;-88
2024/01/10 07:10:04;;;;;;;6.97;4.80;;;2.60;99.90;;;;;;4969566;28;20142;-87
2024/01/10 07:12:33;;;;;;;7.07;4.35;;;2.60;99.90;;;;;;4988700;28;20391;-88
2024/01/10 07:15:00;;;;;;;6.53;4.30;;;2.60;99.90;;;;;;4968977;28;20037;-87
2024/01/10 07:17:27;;;;;;;6.32;4.40;;;2.60;99.90;;;;;;4997350;28;20022;-87
2024/01/10 07:19:53;;;;;;;8.70;4.32;;;2.60;99.90;;;;;;4968189;28;20062;-88
2024/01/10 07:22:22;;;;;;;7.57;4.18;;;2.60;99.90;;;;;;4999203;28;20562;-88
2024/01/10 07:24:49;;;;;;;8.13;4.15;;;2.60;99.90;;;;;;4967328;28;20117;-87
2024/01/10 07:27:14;;;;;;;10.02;4.40;;;2.60;99.90;;;;;;4966150;28;20038;-87
2024/01/10 07:29:42;;;;;;;8.55;4.75;;;2.60;99.90;;;;;;4964988;28;20030;-88
2024/01/10 07:32:11;;;;;;;10.68;4.53;;;2.60;99.90;;;;;;4998406;28;20359;-88
2024/01/10 07:34:40;;;;;;;6.80;4.03;;;2.70;99.90;;;;;;4969534;28;20035;-86
2024/01/10 07:37:06;;;;;;;6.82;3.67;;;2.70;99.90;;;;;;4968601;28;20023;-88
2024/01/10 07:39:31;;;;;;;6.43;3.78;;;2.70;99.90;;;;;;4964677;28;20106;-87
2024/01/10 07:41:57;;;;;;;7.35;3.58;;;2.70;99.90;;;;;;4996402;28;20037;-87
2024/01/10 07:44:24;;;;;;;7.40;4.10;;;2.70;99.90;;;;;;4997923;28;20091;-87
2024/01/10 07:46:53;;;;;;;6.10;3.90;;;2.70;99.90;;;;;;4967590;28;20022;-88
2024/01/10 07:49:21;;;;;;;10.48;4.20;;;2.70;99.90;;;;;;4967265;28;20026;-89
2024/01/10 07:51:48;;;;;;;5.72;3.70;;;2.80;99.90;;;;;;4999700;28;20054;-88
2024/01/10 07:54:14;;;;;;;6.28;3.17;;;2.80;99.90;;;;;;5000103;28;20073;-87
2024/01/10 07:56:40;;;;;;;5.15;3.10;;;2.90;99.90;;;;;;4951591;28;20034;-88
2024/01/10 07:59:06;;;;;;;5.70;3.13;;;2.90;99.90;;;;;;4969309;28;20065;-87
2024/01/10 08:01:33;;;;;;;5.00;3.03;;;2.90;99.90;;;;;;4967052;28;20045;-87
2024/01/10 08:03:59;;;;;;;5.28;3.25;;;2.90;99.90;;;;;;4997757;28;20542;-87
2024/01/10 08:06:24;;;;;;;5.45;3.50;;;2.90;99.90;;;;;;4965484;28;20039;-87
2024/01/10 08:08:50;;;;;;;5.32;3.10;;;3.00;99.90;;;;;;4964946;28;20026;-87
2024/01/10 08:11:16;;;;;;;9.00;3.38;;;3.00;99.90;;;;;;4965449;28;20080;-88
2024/01/10 08:13:42;;;;;;;4.72;3.50;;;3.00;99.90;;;;;;4993668;28;20080;-87
2024/01/10 08:16:09;;;;;;;5.93;3.60;;;3.10;99.90;;;;;;4967734;28;20027;-88
2024/01/10 08:18:35;;;;;;;4.57;3.20;;;3.10;99.90;;;;;;4968238;28;20030;-88
2024/01/10 08:21:00;;;;;;;6.13;4.43;;;3.10;99.90;;;;;;4996238;28;20018;-88
2024/01/10 08:23:26;;;;;;;5.03;3.22;;;3.10;99.90;;;;;;4969105;28;20173;-87
2024/01/10 08:25:51;;;;;;;6.18;2.95;;;3.10;99.90;;;;;;4983497;28;20118;-87
2024/01/10 08:28:17;;;;;;;7.45;3.78;;;3.10;99.90;;;;;;4967438;28;20026;-86
2024/01/10 08:30:44;;;;;;;6.53;3.30;;;3.10;99.90;;;;;;4991565;28;20058;-86
2024/01/10 08:33:09;;;;;;;6.82;3.72;;;3.10;99.90;;;;;;4985708;28;20027;-86
2024/01/10 08:35:35;;;;;;;7.47;4.15;;;3.10;99.90;;;;;;4965674;28;20030;-87
2024/01/10 08:38:04;;;;;;;5.35;3.60;;;3.00;99.90;;;;;;5000158;28;20057;-87
2024/01/10 08:40:30;;;;;;;5.63;3.40;;;3.00;99.90;;;;;;4965107;28;20088;-86
2024/01/10 08:42:56;;;;;;;6.00;3.58;;;3.00;99.90;;;;;;4967268;28;20030;-87
2024/01/10 08:45:22;;;;;;;7.20;3.17;;;3.00;99.90;;;;;;4967840;28;20411;-86
2024/01/10 08:47:48;;;;;;;5.47;3.63;;;3.00;99.90;;;;;;4967426;28;20029;-87
2024/01/10 08:50:14;;;;;;;6.50;3.90;;;3.00;99.90;;;;;;4996332;28;20489;-86
2024/01/10 08:52:40;;;;;;;6.15;3.55;;;3.00;99.90;;;;;;4965453;28;20129;-87
2024/01/10 08:55:06;;;;;;;5.93;3.53;;;3.00;99.90;;;;;;4987215;28;20134;-86
2024/01/10 08:57:32;;;;;;;7.97;3.17;;;3.00;99.90;;;;;;4980014;28;20663;-86
2024/01/10 08:59:57;;;;;;;7.65;3.58;;;3.10;99.90;;;;;;4965628;28;20130;-86
2024/01/10 09:02:24;;;;;;;11.90;4.57;;;3.00;99.90;;;;;;4995553;28;20034;-86
2024/01/10 09:04:50;;;;;;;7.20;3.65;;;3.10;99.90;;;;;;4964239;28;20035;-86
2024/01/10 09:07:17;;;;;;;8.32;4.57;;;3.00;99.90;;;;;;4997068;28;20645;-86
2024/01/10 09:09:43;;;;;;;7.85;3.47;;;3.00;99.90;;;;;;4995660;28;20030;-86
2024/01/10 09:12:09;;;;;;;8.85;4.13;;;3.00;99.90;;;;;;4995329;28;20026;-86
2024/01/10 09:14:35;;;;;;;7.80;3.42;;;3.00;99.90;;;;;;4994474;28;20018;-86
2024/01/10 09:17:02;;;;;;;6.68;3.63;;;3.10;99.90;;;;;;4980767;28;20050;-86
2024/01/10 09:19:29;;;;;;;7.18;3.50;;;3.10;99.90;;;;;;4965674;28;21131;-86
2024/01/10 09:21:57;;;;;;;7.63;4.00;;;3.10;99.90;;;;;;4998095;28;20033;-86
2024/01/10 09:24:25;;;;;;;11.80;3.67;;;3.10;99.90;;;;;;4997191;28;20034;-86
2024/01/10 09:26:52;;;;;;;7.22;3.92;;;3.10;99.90;;;;;;4970390;28;20069;-87
2024/01/10 09:29:17;;;;;;;6.95;3.55;;;3.10;99.90;;;;;;4998285;28;20073;-86
2024/01/10 09:31:43;;;;;;;6.10;4.00;;;3.10;99.90;;;;;;4969933;28;20030;-87
2024/01/10 09:34:13;;;;;;;9.13;3.92;;;3.10;99.90;;;;;;4971551;28;20054;-86
2024/01/10 09:36:39;;;;;;;9.05;3.72;;;3.20;99.90;;;;;;4982207;28;20031;-86
2024/01/10 09:39:05;;;;;;;7.10;3.58;;;3.20;99.90;;;;;;4984837;28;20045;-86
2024/01/10 09:41:40;;;;;;;6.05;3.33;;;3.30;99.90;;;;;;4969941;28;20031;-87
2024/01/10 09:44:06;;;;;;;7.60;4.25;;;3.40;99.90;;;;;;4995344;28;20034;-87
2024/01/10 09:46:34;;;;;;;8.18;4.10;;;3.40;99.90;;;;;;4969949;28;20165;-87
2024/01/10 09:49:00;;;;;;;13.57;5.18;;;3.40;99.90;;;;;;4968909;28;20023;-85
2024/01/10 09:51:27;;;;;;;8.20;4.70;;;3.50;99.90;;;;;;4969265;28;20029;-87
2024/01/10 09:53:55;;;;;;;11.38;5.03;;;3.50;99.90;;;;;;4969594;28;20105;-87
2024/01/10 09:56:21;;;;;;;12.25;5.20;;;3.50;99.90;;;;;;4966525;28;20026;-86
2024/01/10 09:58:50;;;;;;;12.77;5.05;;;3.50;99.90;;;;;;4968229;28;20034;-88
2024/01/10 10:01:16;;;;;;;12.13;5.57;;;3.50;99.90;;;;;;4968494;28;20041;-87
2024/01/10 10:03:46;;;;;;;10.93;5.07;;;3.50;99.90;;;;;;4968793;28;20027;-88
2024/01/10 10:06:12;;;;;;;8.95;4.88;;;3.50;99.90;;;;;;4982548;28;20122;-88
2024/01/10 10:08:39;;;;;;;9.57;4.82;;;3.50;99.90;;;;;;4968040;28;20143;-87
2024/01/10 10:11:05;;;;;;;7.10;4.13;;;3.50;99.90;;;;;;4968500;28;20958;-86
2024/01/10 10:13:31;;;;;;;5.50;3.67;;;3.60;99.90;;;;;;4969137;28;20034;-88
2024/01/10 10:15:59;;;;;;;5.10;3.05;;;3.60;99.90;;;;;;4970543;28;20038;-87
2024/01/10 10:18:25;;;;;;;5.40;3.45;;;3.60;99.90;;;;;;4968695;28;20026;-86
2024/01/10 10:21:08;;;;;;;4.53;2.80;;;3.60;99.90;;;;;;4969552;28;20077;-87
2024/01/10 10:23:34;;;;;;;4.57;2.40;;;3.70;99.90;;;;;;4969985;28;20050;-87
2024/01/10 10:26:10;;;;;;;2.17;1.98;;;3.70;99.90;;;;;;4984305;28;20035;-86
2024/01/10 10:28:36;;;;;;;2.80;2.10;;;3.80;99.90;;;;;;4970981;28;20046;-86
2024/01/10 10:31:02;;;;;;;2.15;1.90;;;3.80;99.90;;;;;;4968746;28;20027;-87
2024/01/10 10:33:29;;;;;;;3.78;2.20;;;3.90;99.90;;;;;;4983025;28;20023;-85
2024/01/10 10:35:55;;;;;;;2.33;1.77;;;3.90;99.90;;;;;;4997712;28;20511;-86
2024/01/10 10:38:22;;;;;;;2.25;1.90;;;3.90;99.90;;;;;;4984346;28;20023;-86
2024/01/10 10:40:48;;;;;;;2.30;2.03;;;4.00;99.90;;;;;;4987036;28;20038;-86
2024/01/10 10:43:19;;;;;;;8.93;4.68;;;4.00;99.90;;;;;;4985369;28;20038;-86
2024/01/10 10:45:48;;;;;;;10.13;5.18;;;4.10;99.90;;;;;;4966868;28;20058;-87
2024/01/10 10:48:17;;;;;;;12.02;4.90;;;4.10;99.90;;;;;;4965838;28;20037;-88
2024/01/10 10:51:08;;;;;;;8.00;3.83;;;4.10;99.90;;;;;;4985301;28;20452;-87
2024/01/10 10:53:38;;;;;;;4.03;2.10;;;4.20;99.90;;;;;;4984932;28;20091;-88
2024/01/10 10:56:05;;;;;;;4.65;2.55;;;4.20;99.90;;;;;;4966439;28;20022;-88
2024/01/10 10:58:50;;;;;;;2.83;1.60;;;4.30;99.90;;;;;;4981415;28;20034;-87
2024/01/10 11:01:17;;;;;;;2.55;1.52;;;4.30;99.90;;;;;;4964877;28;20022;-87
2024/01/10 11:03:44;;;;;;;2.25;1.42;;;4.40;99.90;;;;;;4966244;28;20122;-87
2024/01/10 11:06:10;;;;;;;2.75;1.38;;;4.50;99.90;;;;;;4966260;28;20030;-87
2024/01/10 11:09:04;;;;;;;1.83;1.30;;;4.50;99.90;;;;;;4967564;28;20115;-88
2024/01/10 11:12:00;;;;;;;1.83;1.25;;;4.50;99.90;;;;;;4984869;28;20023;-88
2024/01/10 11:14:45;;;;;;;0.85;0.75;;;4.50;99.90;;;;;;4966722;28;20034;-86
2024/01/10 11:17:32;;;;;;;0.90;0.73;;;4.50;99.90;;;;;;4984490;28;20027;-88
2024/01/10 11:20:15;;;;;;;1.13;0.90;;;4.50;99.90;;;;;;4964685;28;20502;-88
2024/01/10 11:23:11;;;;;;;1.20;0.95;;;4.50;99.90;;;;;;4964727;28;20540;-87
2024/01/10 11:25:38;;;;;;;2.28;1.00;;;4.50;99.90;;;;;;4984045;28;20038;-86
2024/01/10 11:28:04;;;;;;;2.47;1.30;;;4.50;99.90;;;;;;4965461;28;20423;-87
2024/01/10 11:30:48;;;;;;;3.17;1.10;;;4.50;99.90;;;;;;4966231;28;20026;-87
2024/01/10 11:33:25;;;;;;;1.75;1.08;;;4.50;99.90;;;;;;4966160;28;20022;-87
2024/01/10 11:36:12;;;;;;;1.40;1.00;;;4.40;99.90;;;;;;4967105;28;20141;-88
2024/01/10 11:38:54;;;;;;;1.73;1.30;;;4.50;99.90;;;;;;4966692;28;20034;-88
2024/01/10 11:41:22;;;;;;;1.65;1.00;;;4.50;99.90;;;;;;4965501;28;20534;-88
2024/01/10 11:44:17;;;;;;;1.83;1.10;;;4.50;99.90;;;;;;4964704;28;20539;-88
2024/01/10 11:46:47;;;;;;;1.55;1.20;;;4.50;99.90;;;;;;4965842;28;20034;-88
2024/01/10 11:49:18;;;;;;;1.63;1.38;;;4.50;99.90;;;;;;4998236;28;20026;-88
2024/01/10 11:51:46;;;;;;;1.83;1.67;;;4.50;99.90;;;;;;4998935;28;20069;-87
2024/01/10 11:54:11;;;;;;;1.50;1.13;;;4.50;99.90;;;;;;4982254;28;20030;-87
2024/01/10 11:56:41;;;;;;;1.83;1.40;;;4.50;99.90;;;;;;4982395;28;20384;-87
2024/01/10 11:59:10;;;;;;;3.60;1.80;;;4.50;99.90;;;;;;4966355;28;20018;-88
2024/01/10 12:01:37;;;;;;;1.75;1.63;;;4.50;99.90;;;;;;4982503;28;20058;-87
2024/01/10 12:04:04;;;;;;;1.98;1.63;;;4.50;99.90;;;;;;4967482;28;20430;-88
2024/01/10 12:06:31;;;;;;;2.15;1.60;;;4.50;99.90;;;;;;4966329;28;20118;-88
2024/01/10 12:08:59;;;;;;;2.08;1.73;;;4.50;99.90;;;;;;4998751;28;20113;-88
2024/01/10 12:11:25;;;;;;;1.50;1.35;;;4.50;99.90;;;;;;4984779;28;20080;-87
2024/01/10 12:13:51;;;;;;;2.38;1.55;;;4.50;99.90;;;;;;4983984;28;20034;-87
2024/01/10 12:16:17;;;;;;;2.25;1.80;;;4.50;99.90;;;;;;4966305;28;20026;-86
2024/01/10 12:18:43;;;;;;;2.72;1.92;;;4.50;99.90;;;;;;4984169;28;20026;-87
2024/01/10 12:21:10;;;;;;;3.15;1.92;;;4.50;99.90;;;;;;4964745;28;20018;-87
2024/01/10 12:23:36;;;;;;;2.58;1.90;;;4.50;99.90;;;;;;4987130;28;20058;-87
2024/01/10 12:26:07;;;;;;;2.08;1.73;;;4.50;99.90;;;;;;4989315;28;20031;-87
2024/01/10 12:28:33;;;;;;;3.55;1.88;;;4.50;99.90;;;;;;4988194;28;20030;-87
2024/01/10 12:30:59;;;;;;;2.00;1.73;;;4.50;99.90;;;;;;4972718;28;20110;-87
2024/01/10 12:33:25;;;;;;;3.25;1.50;;;4.50;99.90;;;;;;4987031;28;20453;-87
2024/01/10 12:36:04;;;;;;;2.85;1.60;;;4.50;99.90;;;;;;4998877;28;20030;-87
2024/01/10 12:38:31;;;;;;;2.88;1.58;;;4.50;99.90;;;;;;4996598;28;20053;-87
2024/01/10 12:40:57;;;;;;;2.55;1.80;;;4.50;99.90;;;;;;4995757;28;20128;-87
2024/01/10 12:43:23;;;;;;;1.65;1.52;;;4.50;99.90;;;;;;5001848;28;20014;-86
2024/01/10 12:46:05;;;;;;;1.80;1.70;;;4.50;99.90;;;;;;4998164;28;20418;-86
2024/01/10 12:48:33;;;;;;;2.38;1.80;;;4.50;99.90;;;;;;4964984;28;20030;-87
2024/01/10 12:51:04;;;;;;;3.20;2.30;;;4.50;99.90;;;;;;4964535;28;20497;-88
2024/01/10 13:22:08;;;;;;;4.70;3.22;;;4.30;99.90;;;;;;5137151;27;20154;-87
2024/01/10 13:24:33;;;;;;;4.85;3.90;;;4.30;99.90;;;;;;5126632;28;20059;-87
2024/01/10 13:26:59;;;;;;;4.28;3.55;;;4.30;99.90;;;;;;5127016;28;20051;-88
2024/01/10 13:29:25;;;;;;;5.90;4.32;;;4.30;99.90;;;;;;5126687;27;20039;-88